Time;durP1;ratioP1;P1;durP2;ratioP2;P2;SDS_P1;SDS_P2;PMS_P1;PMS_P2;Temp;Humidity;BMP_temperature;BMP_pressure;BME280_temperature;BME280_humidity;BME280_pressure;Samples;Min_cycle;Max_cycle;Signal;HPM_P1;HPM_P2
2023/06/14 00:01:58;;;;;;;4.22;1.73;;;15.40;93.80;;;;;;5103253;27;20109;-88
2023/06/14 00:04:25;;;;;;;5.93;1.60;;;15.40;94.20;;;;;;5102603;27;20046;-87
2023/06/14 00:06:52;;;;;;;4.65;1.67;;;15.40;94.10;;;;;;5120124;27;20827;-88
2023/06/14 00:09:19;;;;;;;7.72;1.70;;;15.40;94.60;;;;;;5118731;28;20099;-88
2023/06/14 00:11:45;;;;;;;3.63;1.80;;;15.40;94.40;;;;;;5119898;27;20433;-88
2023/06/14 00:14:12;;;;;;;4.55;1.75;;;15.40;94.70;;;;;;5119224;27;20046;-88
2023/06/14 00:16:42;;;;;;;5.45;1.40;;;15.40;94.70;;;;;;5103222;27;20036;-88
2023/06/14 00:19:10;;;;;;;5.47;1.40;;;15.40;95.00;;;;;;5136701;27;20035;-88
2023/06/14 00:21:38;;;;;;;3.13;1.52;;;15.40;95.00;;;;;;5136365;27;20039;-88
2023/06/14 00:24:05;;;;;;;7.38;1.60;;;15.40;95.20;;;;;;5119816;27;20050;-88
2023/06/14 00:26:31;;;;;;;3.95;1.27;;;15.30;95.50;;;;;;5119332;27;20562;-89
2023/06/14 00:28:58;;;;;;;3.97;1.50;;;15.40;95.60;;;;;;5102299;27;20057;-88
2023/06/14 00:31:25;;;;;;;6.10;1.58;;;15.30;96.00;;;;;;5102461;27;20031;-88
2023/06/14 00:33:51;;;;;;;2.50;1.40;;;15.30;96.00;;;;;;5119606;27;20058;-88
2023/06/14 00:36:18;;;;;;;4.72;1.77;;;15.30;96.40;;;;;;5119068;27;20035;-88
2023/06/14 00:38:45;;;;;;;3.92;1.58;;;15.40;96.30;;;;;;5119383;27;20064;-88
2023/06/14 00:41:14;;;;;;;3.17;1.40;;;15.30;96.60;;;;;;5102444;27;20072;-88
2023/06/14 00:43:41;;;;;;;4.97;1.58;;;15.20;96.60;;;;;;5119057;27;20042;-88
2023/06/14 00:46:08;;;;;;;4.13;1.65;;;15.20;96.70;;;;;;5119430;27;20068;-88
2023/06/14 00:48:36;;;;;;;3.20;1.40;;;15.20;97.00;;;;;;5119011;27;20088;-88
2023/06/14 00:51:03;;;;;;;4.40;1.77;;;15.20;97.10;;;;;;5135667;27;20043;-88
2023/06/14 00:53:33;;;;;;;6.40;1.60;;;15.10;97.40;;;;;;5118412;27;20130;-88
2023/06/14 00:56:00;;;;;;;7.75;1.90;;;15.10;97.60;;;;;;5136100;27;20046;-88
2023/06/14 00:58:27;;;;;;;4.05;1.60;;;15.00;97.50;;;;;;5135716;27;20035;-88
2023/06/14 01:00:54;;;;;;;4.63;1.58;;;15.00;97.80;;;;;;5135478;27;20039;-88
2023/06/14 01:03:22;;;;;;;2.22;1.30;;;15.00;98.10;;;;;;5135066;27;20050;-88
2023/06/14 01:06:26;;;;;;;6.10;1.70;;;14.90;98.40;;;;;;5102244;27;20042;-88
2023/06/14 01:09:05;;;;;;;5.63;1.77;;;14.90;98.90;;;;;;5102273;28;20083;-89
2023/06/14 01:11:37;;;;;;;5.07;1.90;;;14.90;98.70;;;;;;5114810;28;20035;-89
2023/06/14 01:14:05;;;;;;;4.90;1.52;;;14.80;99.00;;;;;;5099105;28;20039;-88
2023/06/14 01:16:34;;;;;;;3.67;1.33;;;14.80;99.00;;;;;;5098169;28;20092;-88
2023/06/14 01:19:02;;;;;;;5.15;1.63;;;14.80;99.30;;;;;;5098630;28;20047;-88
2023/06/14 01:21:29;;;;;;;3.92;1.80;;;14.80;99.40;;;;;;5097877;28;20503;-88
2023/06/14 01:23:56;;;;;;;5.63;1.58;;;14.70;99.70;;;;;;5098817;28;20176;-88
2023/06/14 01:26:23;;;;;;;3.03;1.42;;;14.70;99.80;;;;;;5097690;28;20122;-88
2023/06/14 01:28:52;;;;;;;4.40;1.60;;;14.70;99.90;;;;;;5114299;28;20419;-88
2023/06/14 01:31:23;;;;;;;2.90;1.50;;;14.60;99.90;;;;;;5114231;27;20103;-88
2023/06/14 01:33:52;;;;;;;4.93;1.85;;;14.60;99.90;;;;;;5135122;27;20031;-87
2023/06/14 01:36:19;;;;;;;3.92;1.50;;;14.50;99.90;;;;;;5101627;27;20483;-87
2023/06/14 01:38:49;;;;;;;3.85;1.55;;;14.50;99.90;;;;;;5117992;27;20043;-87
2023/06/14 01:41:18;;;;;;;3.90;1.70;;;14.50;99.90;;;;;;5134886;27;20081;-87
2023/06/14 01:43:47;;;;;;;6.20;1.63;;;14.50;99.90;;;;;;5117672;27;20126;-88
2023/06/14 01:46:15;;;;;;;6.88;1.73;;;14.50;99.90;;;;;;5118231;27;20039;-88
2023/06/14 01:48:43;;;;;;;6.20;1.77;;;14.50;99.90;;;;;;5134765;27;20144;-88
2023/06/14 01:51:10;;;;;;;3.40;1.58;;;14.40;99.90;;;;;;5134427;27;20051;-87
2023/06/14 01:53:38;;;;;;;5.50;2.17;;;14.40;99.90;;;;;;5101101;27;20047;-88
2023/06/14 01:56:05;;;;;;;3.97;1.60;;;14.30;99.90;;;;;;5117896;28;20564;-87
2023/06/14 01:58:32;;;;;;;3.75;1.60;;;14.30;99.90;;;;;;5100891;27;20121;-87
2023/06/14 02:01:00;;;;;;;3.97;1.70;;;14.30;99.90;;;;;;5118026;27;20039;-87
2023/06/14 02:03:27;;;;;;;3.58;1.50;;;14.30;99.90;;;;;;5100906;28;20046;-87
2023/06/14 02:05:55;;;;;;;4.40;1.67;;;14.30;99.90;;;;;;5101074;27;20479;-88
2023/06/14 02:08:23;;;;;;;4.72;1.75;;;14.20;99.90;;;;;;5101431;27;20031;-87
2023/06/14 02:10:49;;;;;;;3.47;1.70;;;14.20;99.90;;;;;;5117714;27;20027;-87
2023/06/14 02:13:16;;;;;;;4.63;1.85;;;14.10;99.90;;;;;;5100926;28;20031;-87
2023/06/14 02:15:43;;;;;;;4.50;1.83;;;14.10;99.90;;;;;;5117566;28;20046;-88
2023/06/14 02:18:11;;;;;;;7.95;1.85;;;14.10;99.90;;;;;;5118064;28;20076;-87
2023/06/14 02:20:38;;;;;;;5.30;2.35;;;14.10;99.90;;;;;;5117561;28;20039;-87
2023/06/14 02:23:05;;;;;;;4.00;1.63;;;14.10;99.90;;;;;;5117701;28;20039;-87
2023/06/14 02:25:31;;;;;;;5.43;1.90;;;14.00;99.90;;;;;;5096991;28;20496;-87
2023/06/14 02:27:58;;;;;;;4.53;1.70;;;14.00;99.90;;;;;;5081140;28;20134;-88
2023/06/14 02:30:25;;;;;;;8.73;2.40;;;14.00;99.90;;;;;;5080502;28;20039;-87
2023/06/14 02:32:53;;;;;;;3.78;1.70;;;14.00;99.90;;;;;;5097851;28;20077;-87
2023/06/14 02:35:20;;;;;;;4.03;2.05;;;13.90;99.90;;;;;;5101764;27;20442;-88
2023/06/14 02:37:47;;;;;;;6.10;2.00;;;13.90;99.90;;;;;;5121269;27;20035;-87
2023/06/14 02:40:13;;;;;;;5.68;2.25;;;13.90;99.90;;;;;;5105037;27;20031;-88
2023/06/14 02:42:40;;;;;;;6.10;1.90;;;13.90;99.90;;;;;;5138216;27;20053;-87
2023/06/14 02:45:08;;;;;;;5.32;2.08;;;13.90;99.90;;;;;;5104421;27;20049;-87
2023/06/14 02:47:34;;;;;;;4.03;1.95;;;13.90;99.90;;;;;;5120716;27;20410;-87
2023/06/14 02:50:02;;;;;;;9.20;2.28;;;13.90;99.90;;;;;;5103881;27;20164;-87
2023/06/14 02:52:29;;;;;;;5.03;2.17;;;13.90;99.90;;;;;;5120841;27;20054;-88
2023/06/14 02:54:55;;;;;;;4.72;1.95;;;13.80;99.90;;;;;;5103971;27;20031;-88
2023/06/14 02:57:23;;;;;;;3.55;1.80;;;13.80;99.90;;;;;;5104176;27;20508;-88
2023/06/14 02:59:50;;;;;;;4.90;2.15;;;13.80;99.90;;;;;;5154201;27;20039;-88
2023/06/14 03:02:17;;;;;;;7.47;2.28;;;13.80;99.90;;;;;;5104778;27;20039;-88
2023/06/14 03:04:44;;;;;;;3.67;2.10;;;13.80;99.90;;;;;;5137454;27;20046;-88
2023/06/14 03:07:12;;;;;;;4.95;2.30;;;13.80;99.90;;;;;;5120731;27;20574;-88
2023/06/14 03:09:39;;;;;;;4.55;2.10;;;13.80;99.90;;;;;;5103671;27;20093;-88
2023/06/14 03:12:07;;;;;;;4.47;2.28;;;13.70;99.90;;;;;;5120906;27;20068;-88
2023/06/14 03:14:34;;;;;;;6.15;2.40;;;13.70;99.90;;;;;;5120744;27;20035;-88
2023/06/14 03:17:02;;;;;;;7.28;2.20;;;13.70;99.90;;;;;;5118023;27;20421;-88
2023/06/14 03:19:29;;;;;;;3.90;2.00;;;13.70;99.90;;;;;;5100473;28;20036;-88
2023/06/14 03:21:57;;;;;;;6.60;2.08;;;13.70;99.90;;;;;;5116774;28;20088;-88
2023/06/14 03:24:27;;;;;;;4.32;2.13;;;13.70;99.90;;;;;;5100630;28;20046;-88
2023/06/14 03:26:54;;;;;;;6.38;2.50;;;13.70;99.90;;;;;;5084034;28;20039;-88
2023/06/14 03:29:21;;;;;;;4.40;2.47;;;13.70;99.90;;;;;;5101476;27;20044;-88
2023/06/14 03:32:02;;;;;;;6.50;2.55;;;13.70;99.90;;;;;;5099739;28;20032;-88
2023/06/14 03:34:29;;;;;;;7.45;2.55;;;13.70;99.90;;;;;;5116392;28;20089;-88
2023/06/14 03:36:56;;;;;;;5.00;2.30;;;13.70;99.90;;;;;;5099522;28;20041;-88
2023/06/14 03:39:22;;;;;;;5.18;2.50;;;13.70;99.90;;;;;;5116103;27;20074;-88
2023/06/14 03:41:49;;;;;;;7.10;2.35;;;13.70;99.90;;;;;;5120112;27;20081;-88
2023/06/14 03:44:18;;;;;;;6.00;2.20;;;13.80;99.90;;;;;;5119116;28;20038;-88
2023/06/14 03:46:46;;;;;;;5.90;2.50;;;13.80;99.90;;;;;;5136219;27;20046;-88
2023/06/14 03:49:13;;;;;;;4.40;2.05;;;13.80;99.90;;;;;;5102953;27;20068;-88
2023/06/14 03:51:40;;;;;;;6.32;2.20;;;13.80;99.90;;;;;;5103011;27;20377;-88
2023/06/14 03:54:07;;;;;;;4.55;2.50;;;13.80;99.90;;;;;;5137218;27;20039;-88
2023/06/14 03:56:34;;;;;;;6.25;2.50;;;13.90;99.90;;;;;;5103703;27;20042;-88
2023/06/14 03:59:01;;;;;;;5.43;2.30;;;13.90;99.90;;;;;;5119585;27;20255;-88
2023/06/14 04:01:29;;;;;;;6.07;2.42;;;13.90;99.90;;;;;;5120268;27;20065;-88
2023/06/14 04:03:59;;;;;;;5.07;2.20;;;13.90;99.90;;;;;;5119791;27;20083;-88
2023/06/14 04:06:31;;;;;;;5.88;2.50;;;13.90;99.90;;;;;;5137121;27;20038;-89
2023/06/14 04:09:03;;;;;;;7.13;2.60;;;14.00;99.90;;;;;;5104234;27;20063;-88
2023/06/14 04:11:31;;;;;;;4.13;2.30;;;14.00;99.90;;;;;;5120253;27;20399;-88
2023/06/14 04:13:58;;;;;;;4.75;2.30;;;14.00;99.90;;;;;;5102883;27;20906;-89
2023/06/14 04:16:25;;;;;;;6.20;2.72;;;14.10;99.90;;;;;;5119891;27;20486;-89
2023/06/14 04:18:52;;;;;;;6.68;3.00;;;14.10;99.90;;;;;;5119725;27;20080;-88
2023/06/14 04:21:19;;;;;;;5.95;2.50;;;14.20;99.90;;;;;;5102695;27;20051;-89
2023/06/14 04:23:45;;;;;;;10.25;2.67;;;14.20;99.90;;;;;;5119506;27;20035;-88
2023/06/14 04:26:12;;;;;;;7.30;3.05;;;14.20;99.90;;;;;;5102819;27;20057;-88
2023/06/14 04:28:40;;;;;;;6.53;2.55;;;14.20;99.90;;;;;;5102815;27;20483;-88
2023/06/14 04:31:08;;;;;;;6.93;2.80;;;14.20;99.90;;;;;;5102998;27;20070;-88
2023/06/14 04:33:44;;;;;;;5.63;2.60;;;14.20;99.90;;;;;;5136516;27;20109;-89
2023/06/14 04:36:17;;;;;;;5.95;2.42;;;14.30;99.90;;;;;;5119989;27;20035;-89
2023/06/14 04:38:44;;;;;;;6.45;3.17;;;14.30;99.90;;;;;;5104572;27;20043;-88
2023/06/14 04:41:11;;;;;;;5.50;2.50;;;14.40;99.90;;;;;;5118879;27;20071;-88
2023/06/14 04:43:39;;;;;;;4.90;2.40;;;14.40;99.90;;;;;;5127431;28;20118;-88
2023/06/14 04:46:10;;;;;;;5.72;2.70;;;14.40;99.90;;;;;;5121200;28;20043;-88
2023/06/14 04:48:40;;;;;;;5.25;2.40;;;14.50;99.90;;;;;;5122318;27;20060;-89
2023/06/14 04:51:10;;;;;;;6.53;2.72;;;14.50;99.90;;;;;;5092117;28;20062;-89
2023/06/14 04:53:37;;;;;;;5.13;2.20;;;14.50;99.90;;;;;;5098716;28;20039;-89
2023/06/14 04:56:04;;;;;;;5.13;2.85;;;14.60;99.90;;;;;;5081424;28;20050;-88
2023/06/14 04:58:31;;;;;;;8.25;2.63;;;14.60;99.90;;;;;;5115244;28;20123;-89
2023/06/14 05:01:02;;;;;;;7.97;2.97;;;14.60;99.90;;;;;;5101781;27;21619;-88
2023/06/14 05:03:30;;;;;;;8.57;2.83;;;14.70;99.90;;;;;;5119440;27;20053;-89
2023/06/14 05:05:57;;;;;;;7.57;2.65;;;14.70;99.90;;;;;;5098144;28;20035;-89
2023/06/14 05:08:23;;;;;;;7.65;2.40;;;14.80;99.90;;;;;;5098274;28;20035;-89
2023/06/14 05:10:50;;;;;;;5.97;2.42;;;14.80;99.90;;;;;;5098734;28;20046;-89
2023/06/14 05:13:18;;;;;;;7.78;2.60;;;14.80;99.90;;;;;;5134517;27;20060;-89
2023/06/14 05:15:45;;;;;;;6.57;2.75;;;14.90;99.90;;;;;;5135413;27;20038;-89
2023/06/14 05:18:13;;;;;;;4.85;2.85;;;14.90;99.90;;;;;;5135012;27;20498;-89
2023/06/14 05:20:41;;;;;;;6.88;2.50;;;15.00;99.90;;;;;;5101986;27;20039;-89
2023/06/14 05:23:14;;;;;;;6.57;2.83;;;15.00;99.90;;;;;;5101592;27;20035;-88
2023/06/14 05:25:45;;;;;;;4.78;2.45;;;15.10;99.90;;;;;;5152253;27;20567;-89
2023/06/14 05:28:12;;;;;;;9.38;2.50;;;15.10;99.90;;;;;;5117971;27;20047;-89
2023/06/14 05:30:39;;;;;;;5.60;2.50;;;15.20;99.90;;;;;;5118015;27;20068;-89
2023/06/14 05:33:06;;;;;;;10.45;2.60;;;15.20;99.90;;;;;;5126022;27;20057;-89
2023/06/14 05:35:33;;;;;;;6.00;2.72;;;15.40;99.90;;;;;;5115620;27;20483;-89
2023/06/14 05:38:00;;;;;;;8.80;2.67;;;15.40;99.90;;;;;;5089322;28;20046;-88
2023/06/14 05:40:27;;;;;;;6.80;2.80;;;15.40;99.90;;;;;;5098059;28;20045;-88
2023/06/14 05:42:54;;;;;;;5.93;2.67;;;15.50;99.90;;;;;;5098025;27;20126;-88
2023/06/14 05:45:21;;;;;;;9.75;2.70;;;15.50;99.90;;;;;;5088319;28;20070;-89
2023/06/14 05:47:47;;;;;;;4.97;2.60;;;15.60;99.90;;;;;;5093809;27;20772;-89
2023/06/14 05:50:14;;;;;;;6.57;3.03;;;15.70;99.90;;;;;;5078071;28;20062;-89
2023/06/14 05:52:41;;;;;;;15.60;3.35;;;15.80;99.90;;;;;;5077514;28;20039;-88
2023/06/14 05:55:08;;;;;;;19.25;3.63;;;15.80;99.90;;;;;;5077382;28;20484;-88
2023/06/14 05:57:35;;;;;;;23.45;4.25;;;15.90;99.90;;;;;;5111041;28;20027;-88
2023/06/14 06:00:09;;;;;;;11.43;3.03;;;16.00;99.90;;;;;;5104216;28;20146;-88
2023/06/14 06:02:36;;;;;;;10.45;2.80;;;16.10;99.90;;;;;;5148480;28;20040;-89
2023/06/14 06:05:03;;;;;;;5.35;2.60;;;16.20;99.90;;;;;;5079090;28;20067;-88
2023/06/14 06:07:29;;;;;;;9.30;3.08;;;16.20;99.90;;;;;;5093364;28;20040;-90
2023/06/14 06:09:56;;;;;;;5.20;2.42;;;16.30;99.90;;;;;;5077304;28;20036;-90
2023/06/14 06:12:23;;;;;;;5.95;2.30;;;16.40;99.90;;;;;;5093608;28;20036;-89
2023/06/14 06:14:50;;;;;;;10.05;2.70;;;16.50;99.90;;;;;;5077661;28;20036;-90
2023/06/14 06:17:16;;;;;;;6.47;2.90;;;16.60;99.90;;;;;;5076989;28;20105;-90
2023/06/14 06:19:43;;;;;;;8.13;2.50;;;16.70;99.90;;;;;;5077552;28;20044;-89
2023/06/14 06:22:10;;;;;;;9.88;2.60;;;16.80;99.90;;;;;;5077370;28;20396;-88
2023/06/14 06:24:37;;;;;;;4.93;2.40;;;16.90;99.90;;;;;;5077409;28;20515;-89
2023/06/14 06:27:03;;;;;;;5.80;2.35;;;17.00;99.90;;;;;;5087740;28;20219;-88
2023/06/14 06:29:30;;;;;;;5.35;2.47;;;17.10;99.90;;;;;;5113439;28;20096;-89
2023/06/14 06:31:57;;;;;;;5.82;2.35;;;17.20;99.90;;;;;;5130565;28;20065;-89
2023/06/14 06:34:24;;;;;;;5.57;2.28;;;17.30;99.90;;;;;;5096842;28;20039;-89
2023/06/14 06:36:50;;;;;;;4.38;2.38;;;17.40;99.90;;;;;;5097264;28;20680;-89
2023/06/14 06:39:17;;;;;;;7.38;2.28;;;17.60;99.90;;;;;;5113248;28;20126;-89
2023/06/14 06:41:44;;;;;;;5.85;2.40;;;17.70;99.90;;;;;;5130397;28;20138;-88
2023/06/14 06:44:10;;;;;;;7.25;2.30;;;17.90;99.90;;;;;;5130097;28;20046;-88
2023/06/14 06:46:40;;;;;;;4.93;2.47;;;18.00;99.90;;;;;;5080518;28;20040;-88
2023/06/14 06:49:11;;;;;;;7.50;2.42;;;18.20;99.90;;;;;;5093486;28;20041;-89
2023/06/14 06:51:45;;;;;;;5.90;2.38;;;18.30;99.90;;;;;;5105736;28;20051;-89
2023/06/14 06:54:11;;;;;;;6.50;2.30;;;18.50;99.90;;;;;;5109831;28;20040;-87
2023/06/14 06:56:38;;;;;;;6.35;2.20;;;18.50;99.90;;;;;;5082203;28;20440;-89
2023/06/14 06:59:05;;;;;;;11.38;2.20;;;18.70;99.90;;;;;;5096640;28;20471;-89
2023/06/14 07:01:33;;;;;;;5.40;2.30;;;18.80;99.90;;;;;;5091464;28;20517;-89
2023/06/14 07:04:00;;;;;;;5.53;2.45;;;18.90;99.90;;;;;;5080448;28;20043;-89
2023/06/14 07:06:27;;;;;;;4.85;1.95;;;18.90;99.90;;;;;;5095260;28;20050;-88
2023/06/14 07:08:54;;;;;;;5.05;2.20;;;19.10;99.90;;;;;;5096303;28;20036;-88
2023/06/14 07:11:21;;;;;;;5.55;2.30;;;19.20;99.90;;;;;;5128642;28;20050;-86
2023/06/14 07:13:47;;;;;;;8.57;2.58;;;19.30;99.90;;;;;;5112365;28;20036;-90
2023/06/14 07:16:15;;;;;;;3.80;1.95;;;19.50;99.90;;;;;;5099057;28;20043;-90
2023/06/14 07:18:41;;;;;;;6.78;2.20;;;19.50;99.90;;;;;;5087881;28;20032;-91
2023/06/14 07:21:08;;;;;;;6.47;2.20;;;19.60;99.90;;;;;;5107183;28;20032;-89
2023/06/14 07:23:35;;;;;;;6.88;2.10;;;19.80;99.90;;;;;;5088703;28;20476;-86
2023/06/14 07:26:02;;;;;;;7.70;2.17;;;19.90;99.90;;;;;;5120654;28;20059;-87
2023/06/14 07:28:29;;;;;;;5.68;2.08;;;20.00;99.90;;;;;;5110021;28;20040;-87
2023/06/14 07:30:56;;;;;;;3.95;2.00;;;20.10;99.90;;;;;;5108095;28;20051;-88
2023/06/14 07:33:23;;;;;;;6.50;1.98;;;20.20;99.90;;;;;;5113098;28;20063;-87
2023/06/14 07:35:51;;;;;;;3.97;2.00;;;20.30;99.90;;;;;;5089578;28;20059;-87
2023/06/14 07:38:18;;;;;;;5.50;1.85;;;20.30;99.90;;;;;;5116436;28;20502;-92
2023/06/14 07:40:45;;;;;;;4.18;1.88;;;20.40;99.90;;;;;;5116243;28;20040;-88
2023/06/14 07:43:11;;;;;;;4.90;2.03;;;20.60;99.90;;;;;;5133230;28;20818;-89
2023/06/14 07:45:38;;;;;;;4.47;1.80;;;20.70;99.90;;;;;;5114140;28;20040;-89
2023/06/14 07:48:05;;;;;;;5.63;1.95;;;20.80;99.90;;;;;;5085924;28;20078;-88
2023/06/14 07:50:35;;;;;;;4.85;1.80;;;20.90;99.90;;;;;;5103739;28;20105;-89
2023/06/14 07:53:02;;;;;;;5.72;2.10;;;21.00;99.50;;;;;;5096942;28;20051;-88
2023/06/14 07:55:29;;;;;;;3.88;1.95;;;21.10;99.70;;;;;;5115685;28;20502;-87
2023/06/14 07:57:55;;;;;;;5.88;1.90;;;21.20;99.60;;;;;;5115299;28;20122;-87
2023/06/14 08:00:22;;;;;;;3.60;2.05;;;21.20;99.50;;;;;;5081506;28;20539;-87
2023/06/14 08:02:49;;;;;;;4.65;1.90;;;21.30;99.50;;;;;;5117416;28;20044;-87
2023/06/14 08:05:16;;;;;;;3.42;1.90;;;21.40;99.40;;;;;;5094904;28;20040;-88
2023/06/14 08:07:42;;;;;;;5.53;1.80;;;21.60;99.20;;;;;;5078884;28;20032;-87
2023/06/14 08:10:10;;;;;;;4.70;2.28;;;21.60;98.90;;;;;;5078644;28;20036;-87
2023/06/14 08:12:37;;;;;;;4.55;2.15;;;21.70;98.70;;;;;;5078320;28;20040;-87
2023/06/14 08:15:04;;;;;;;4.40;1.90;;;21.70;98.60;;;;;;5095393;28;20039;-87
2023/06/14 08:17:34;;;;;;;3.97;1.67;;;21.80;98.50;;;;;;5095069;28;20036;-87
2023/06/14 08:20:01;;;;;;;4.45;2.03;;;21.80;98.30;;;;;;5095025;28;20036;-88
2023/06/14 08:22:28;;;;;;;3.58;1.70;;;21.90;98.10;;;;;;5128395;28;20496;-87
2023/06/14 08:24:55;;;;;;;4.47;1.73;;;22.00;98.00;;;;;;5128587;28;20036;-87
2023/06/14 08:27:22;;;;;;;5.03;1.80;;;22.00;98.00;;;;;;5128147;28;20050;-86
2023/06/14 08:29:49;;;;;;;3.65;1.83;;;22.10;97.60;;;;;;5128216;28;20434;-86
2023/06/14 08:32:15;;;;;;;3.42;1.75;;;22.20;97.70;;;;;;5143878;28;20047;-85
2023/06/14 08:34:42;;;;;;;7.53;1.85;;;22.30;97.50;;;;;;5127510;28;20121;-86
2023/06/14 08:37:09;;;;;;;3.47;1.55;;;22.50;97.40;;;;;;5128091;28;20039;-86
2023/06/14 08:39:36;;;;;;;5.55;2.10;;;22.50;97.10;;;;;;5144632;28;20040;-87
2023/06/14 08:42:04;;;;;;;7.90;2.00;;;22.60;96.90;;;;;;5114885;28;20453;-86
2023/06/14 08:44:30;;;;;;;6.90;2.00;;;22.70;96.90;;;;;;5093709;28;20094;-86
2023/06/14 08:47:21;;;;;;;5.68;1.90;;;22.80;96.90;;;;;;5127574;28;20043;-86
2023/06/14 08:49:48;;;;;;;6.90;2.20;;;22.90;96.90;;;;;;5117925;28;20092;-86
2023/06/14 08:52:19;;;;;;;5.32;2.10;;;23.00;96.70;;;;;;5114519;28;20036;-86
2023/06/14 08:54:48;;;;;;;5.25;1.80;;;23.20;96.30;;;;;;5147843;28;20507;-86
2023/06/14 08:57:16;;;;;;;16.08;3.08;;;23.30;96.30;;;;;;5119758;28;20036;-86
2023/06/14 08:59:52;;;;;;;3.60;1.80;;;23.40;96.10;;;;;;5093808;28;20762;-87
2023/06/14 09:02:22;;;;;;;4.35;1.92;;;23.40;95.50;;;;;;5110303;28;20450;-86
2023/06/14 09:04:51;;;;;;;7.80;1.92;;;23.50;96.00;;;;;;5093796;28;20404;-87
2023/06/14 09:07:18;;;;;;;7.47;1.88;;;23.50;96.00;;;;;;5078082;28;20044;-87
2023/06/14 09:09:45;;;;;;;7.28;1.92;;;23.70;95.60;;;;;;5077129;28;20396;-87
2023/06/14 09:12:12;;;;;;;7.15;2.00;;;23.70;95.50;;;;;;5093573;28;20131;-87
2023/06/14 09:14:40;;;;;;;3.50;1.77;;;23.80;95.50;;;;;;5077048;28;20119;-86
2023/06/14 09:17:07;;;;;;;5.20;1.90;;;23.90;95.30;;;;;;5077681;28;20507;-87
2023/06/14 09:19:37;;;;;;;5.15;1.77;;;24.00;95.10;;;;;;5076635;28;20075;-87
2023/06/14 09:22:05;;;;;;;3.28;1.70;;;23.90;94.80;;;;;;5110608;28;20047;-87
2023/06/14 09:24:31;;;;;;;4.28;1.90;;;24.00;94.80;;;;;;5109621;28;20092;-86
2023/06/14 09:26:58;;;;;;;6.07;1.85;;;24.10;94.50;;;;;;5093503;28;20040;-87
2023/06/14 09:29:26;;;;;;;8.35;2.22;;;24.20;94.40;;;;;;5093333;28;20496;-86
2023/06/14 09:31:53;;;;;;;4.03;1.73;;;24.20;93.90;;;;;;5077343;28;20044;-87
2023/06/14 09:34:23;;;;;;;6.78;2.30;;;24.20;94.10;;;;;;5076747;28;20044;-87
2023/06/14 09:36:50;;;;;;;4.15;1.80;;;24.40;94.00;;;;;;5093635;28;20506;-87
2023/06/14 09:39:18;;;;;;;7.35;1.80;;;24.40;93.80;;;;;;5110219;28;20185;-87
2023/06/14 09:41:45;;;;;;;9.30;2.40;;;24.50;94.20;;;;;;5076169;28;20093;-86
2023/06/14 09:44:12;;;;;;;4.57;1.77;;;24.50;93.70;;;;;;5076061;28;20043;-88
2023/06/14 09:46:39;;;;;;;3.70;1.98;;;24.50;93.50;;;;;;5076437;28;20043;-87
2023/06/14 09:49:07;;;;;;;4.30;1.90;;;24.50;93.40;;;;;;5092954;28;20131;-86
2023/06/14 09:51:36;;;;;;;3.55;1.80;;;24.70;93.30;;;;;;5108932;28;20109;-87
2023/06/14 09:54:05;;;;;;;4.47;2.00;;;24.80;93.00;;;;;;5092969;28;20551;-85
2023/06/14 09:56:34;;;;;;;4.18;2.08;;;24.70;92.40;;;;;;5092281;28;20086;-86
2023/06/14 09:59:04;;;;;;;3.22;1.67;;;24.80;92.90;;;;;;5109332;28;20087;-86
2023/06/14 10:01:32;;;;;;;8.40;1.95;;;25.00;92.80;;;;;;5109192;28;20059;-86
2023/06/14 10:04:10;;;;;;;6.25;2.03;;;25.00;92.70;;;;;;5133850;28;20495;-86
2023/06/14 10:06:39;;;;;;;7.55;1.80;;;25.10;92.10;;;;;;5109027;28;20102;-86
2023/06/14 10:09:09;;;;;;;3.78;1.70;;;25.20;92.40;;;;;;5092443;28;20040;-86
2023/06/14 10:11:36;;;;;;;5.32;1.60;;;25.20;92.20;;;;;;5108582;28;20559;-87
2023/06/14 10:14:06;;;;;;;4.53;1.60;;;25.20;92.20;;;;;;5109546;28;20062;-86
2023/06/14 10:16:52;;;;;;;5.18;1.80;;;25.20;92.10;;;;;;5099962;28;20118;-87
2023/06/14 10:19:21;;;;;;;4.22;1.58;;;25.20;91.70;;;;;;5128071;28;20126;-86
2023/06/14 10:22:12;;;;;;;4.55;1.67;;;25.30;91.60;;;;;;5128997;28;20043;-86
2023/06/14 10:24:43;;;;;;;4.82;1.42;;;25.40;91.20;;;;;;5108932;28;20040;-85
2023/06/14 10:27:13;;;;;;;3.60;1.50;;;25.40;90.80;;;;;;5125852;28;20105;-87
2023/06/14 10:30:10;;;;;;;3.30;1.27;;;25.40;91.10;;;;;;5100488;28;20080;-88
2023/06/14 10:33:04;;;;;;;3.65;1.40;;;25.40;88.20;;;;;;5103775;28;20042;-86
2023/06/14 10:35:31;;;;;;;2.85;1.35;;;25.50;89.70;;;;;;5121575;28;20044;-88
2023/06/14 10:38:11;;;;;;;7.03;1.50;;;25.50;90.40;;;;;;5112868;28;20031;-89
2023/06/14 10:40:40;;;;;;;5.57;1.63;;;25.50;88.90;;;;;;5115933;28;20045;-85
2023/06/14 10:43:33;;;;;;;9.40;1.65;;;25.50;90.20;;;;;;5113375;28;20032;-90
2023/06/14 10:46:28;;;;;;;5.28;1.33;;;25.60;88.60;;;;;;5106645;28;20052;-86
2023/06/14 10:48:57;;;;;;;;;;;25.60;87.60;;;;;;5116960;28;20051;-86
2023/06/14 10:51:24;;;;;;;3.70;1.38;;;25.60;89.20;;;;;;5115344;28;20303;-85
2023/06/14 10:53:51;;;;;;;4.82;1.35;;;25.60;90.00;;;;;;5092716;28;20055;-85
2023/06/14 10:56:28;;;;;;;4.57;1.60;;;25.80;90.50;;;;;;5080061;28;20040;-86
2023/06/14 10:58:57;;;;;;;3.83;1.58;;;25.80;89.70;;;;;;5113059;28;20070;-85
2023/06/14 11:01:38;;;;;;;4.40;1.27;;;25.80;90.00;;;;;;5112315;28;20052;-85
2023/06/14 11:04:12;;;;;;;4.65;1.70;;;26.00;87.70;;;;;;5112155;28;20043;-85
2023/06/14 11:06:52;;;;;;;2.70;1.50;;;26.10;88.30;;;;;;5112809;28;20048;-85
2023/06/14 11:09:41;;;;;;;4.88;1.45;;;26.20;88.80;;;;;;5112286;28;20036;-85
2023/06/14 11:12:13;;;;;;;8.75;1.42;;;26.20;88.80;;;;;;5132576;28;20043;-84
2023/06/14 11:14:40;;;;;;;3.20;1.45;;;26.10;88.30;;;;;;5107315;28;20040;-85
2023/06/14 11:17:06;;;;;;;3.25;1.30;;;26.00;88.90;;;;;;5093477;28;20039;-85
2023/06/14 11:19:33;;;;;;;3.15;1.30;;;25.90;88.90;;;;;;5132240;28;20122;-84
2023/06/14 11:22:00;;;;;;;7.43;1.40;;;25.90;88.40;;;;;;5098940;28;20040;-85
2023/06/14 11:24:27;;;;;;;4.03;1.50;;;25.70;88.30;;;;;;5099046;28;20096;-85
2023/06/14 11:26:56;;;;;;;3.60;1.30;;;25.40;88.50;;;;;;5114999;28;20137;-85
2023/06/14 11:29:23;;;;;;;3.83;1.40;;;25.40;89.30;;;;;;5132095;28;20511;-85
2023/06/14 11:31:50;;;;;;;3.70;1.40;;;25.40;89.00;;;;;;5115300;28;20071;-85
2023/06/14 11:34:17;;;;;;;6.55;1.48;;;25.50;88.30;;;;;;5131796;28;20441;-84
2023/06/14 11:36:45;;;;;;;5.18;1.75;;;25.60;88.10;;;;;;5098449;28;20047;-85
2023/06/14 11:39:13;;;;;;;4.13;1.55;;;25.60;87.60;;;;;;5116010;28;20395;-85
2023/06/14 11:41:44;;;;;;;4.38;1.27;;;25.40;87.50;;;;;;5098522;28;20051;-85
2023/06/14 11:44:12;;;;;;;3.05;1.30;;;25.30;87.50;;;;;;5094477;28;20102;-84
2023/06/14 11:46:39;;;;;;;3.58;1.50;;;25.40;87.10;;;;;;5111473;28;20043;-84
2023/06/14 11:49:07;;;;;;;5.32;1.48;;;25.50;87.50;;;;;;5096705;28;20043;-83
2023/06/14 11:51:35;;;;;;;3.05;1.45;;;25.60;87.40;;;;;;5115351;28;20163;-84
2023/06/14 11:54:03;;;;;;;2.92;1.50;;;25.60;87.00;;;;;;5114602;28;20079;-85
2023/06/14 11:56:31;;;;;;;9.93;2.00;;;25.60;86.60;;;;;;5111949;28;20038;-84
2023/06/14 11:58:58;;;;;;;2.53;1.40;;;25.80;86.10;;;;;;5100604;28;20897;-84
2023/06/14 12:01:25;;;;;;;4.25;1.40;;;25.80;86.30;;;;;;5131813;28;20042;-85
2023/06/14 12:03:54;;;;;;;4.78;1.40;;;25.80;86.20;;;;;;5114506;28;20043;-85
2023/06/14 12:06:29;;;;;;;2.70;1.27;;;25.80;86.00;;;;;;5114164;28;20081;-85
2023/06/14 12:08:59;;;;;;;3.75;1.33;;;25.90;85.20;;;;;;5129115;28;20127;-86
2023/06/14 12:11:34;;;;;;;4.00;1.30;;;26.00;85.60;;;;;;5111494;28;20063;-85
2023/06/14 12:14:06;;;;;;;5.43;1.25;;;26.20;85.70;;;;;;5110789;28;20192;-86
2023/06/14 12:16:35;;;;;;;6.50;1.45;;;26.20;86.50;;;;;;5111481;28;20069;-85
2023/06/14 12:19:28;;;;;;;3.60;1.60;;;26.20;86.30;;;;;;5110906;28;20519;-85
2023/06/14 12:21:58;;;;;;;2.78;1.50;;;26.20;85.50;;;;;;5125538;28;20048;-85
2023/06/14 12:24:29;;;;;;;3.40;1.48;;;26.20;85.80;;;;;;5094837;28;20048;-86
2023/06/14 12:27:02;;;;;;;3.35;1.58;;;25.90;84.90;;;;;;5130718;28;20542;-85
2023/06/14 12:29:30;;;;;;;3.22;1.60;;;25.70;85.50;;;;;;5113379;28;20500;-85
2023/06/14 12:31:57;;;;;;;3.00;2.25;;;25.70;85.90;;;;;;5127959;28;20131;-85
2023/06/14 12:34:27;;;;;;;3.13;1.70;;;25.90;85.80;;;;;;5144658;28;20127;-83
2023/06/14 12:36:54;;;;;;;5.13;1.63;;;26.00;85.70;;;;;;5127177;28;20168;-84
2023/06/14 12:39:21;;;;;;;5.35;1.90;;;25.90;85.50;;;;;;5127623;28;20127;-79
2023/06/14 12:41:51;;;;;;;3.72;1.77;;;25.70;85.50;;;;;;5127509;28;20132;-84
2023/06/14 12:44:17;;;;;;;3.08;1.60;;;25.70;85.70;;;;;;5128381;28;20032;-82
2023/06/14 12:46:44;;;;;;;6.10;1.98;;;25.90;85.80;;;;;;5127162;28;20052;-79
2023/06/14 12:49:11;;;;;;;2.72;1.52;;;26.00;85.60;;;;;;5093391;28;20123;-82
2023/06/14 12:51:39;;;;;;;6.32;1.52;;;25.90;85.40;;;;;;5113192;28;20055;-83
2023/06/14 12:54:06;;;;;;;10.27;2.25;;;25.80;85.20;;;;;;5080643;28;20044;-82